createdAt,value
2022-12-20T00:00:10.643Z,74.18
2022-12-20T00:03:14.261Z,74.21
2022-12-20T00:06:18.513Z,74.10
2022-12-20T00:09:21.664Z,73.96
2022-12-20T00:12:24.763Z,73.99
2022-12-20T00:15:27.653Z,73.71
2022-12-20T00:18:30.876Z,73.68
2022-12-20T00:21:35.260Z,73.60
2022-12-20T00:24:38.487Z,73.51
2022-12-20T00:27:41.578Z,73.36
2022-12-20T00:30:44.495Z,73.31
2022-12-20T00:33:49.483Z,73.47
2022-12-20T00:36:52.497Z,73.14
2022-12-20T00:39:55.484Z,73.08
2022-12-20T00:42:58.471Z,72.93
2022-12-20T00:46:02.073Z,72.97
2022-12-20T00:49:06.805Z,72.80
2022-12-20T00:52:09.796Z,72.74
2022-12-20T00:55:12.907Z,72.70
2022-12-20T00:58:16.183Z,72.60
2022-12-20T01:01:22.908Z,72.54
2022-12-20T01:04:25.952Z,72.34
2022-12-20T01:07:28.942Z,72.35
2022-12-20T01:10:32.544Z,72.40
2022-12-20T01:13:37.982Z,72.30
2022-12-20T01:16:44.253Z,72.26
2022-12-20T01:19:46.324Z,72.20
2022-12-20T01:22:50.437Z,72.21
2022-12-20T01:25:53.428Z,72.21
2022-12-20T01:28:59.518Z,72.17
2022-12-20T01:32:02.448Z,72.21
2022-12-20T01:35:06.786Z,72.00
2022-12-20T01:38:09.553Z,72.05
2022-12-20T01:41:16.340Z,72.06
2022-12-20T01:44:57.745Z,71.85
2022-12-20T01:48:01.186Z,71.75
2022-12-20T01:51:04.606Z,71.77
2022-12-20T01:54:13.470Z,71.64
2022-12-20T01:57:21.005Z,71.70
2022-12-20T02:00:24.178Z,71.62
2022-12-20T02:03:29.671Z,71.66
2022-12-20T02:06:32.511Z,71.74
2022-12-20T02:09:37.837Z,71.62
2022-12-20T02:12:42.711Z,71.42
2022-12-20T02:15:53.734Z,71.42
2022-12-20T02:19:07.499Z,71.29
2022-12-20T02:22:23.513Z,71.09
2022-12-20T02:25:57.848Z,71.14
2022-12-20T02:29:20.776Z,71.22
2022-12-20T02:32:28.581Z,71.19
2022-12-20T02:35:36.019Z,71.05
2022-12-20T02:38:39.096Z,70.97
2022-12-20T02:41:45.418Z,70.88
2022-12-20T02:45:08.376Z,70.84
2022-12-20T02:48:12.059Z,70.77
2022-12-20T02:51:17.742Z,70.36
2022-12-20T02:54:21.112Z,70.49
2022-12-20T02:57:32.968Z,70.61
2022-12-20T03:00:42.565Z,70.60
2022-12-20T03:03:45.977Z,70.58
2022-12-20T03:07:01.096Z,70.59
2022-12-20T03:10:04.630Z,70.71
2022-12-20T03:13:07.455Z,70.40
2022-12-20T03:16:10.543Z,70.25
2022-12-20T03:19:13.343Z,70.36
2022-12-20T03:22:16.118Z,70.37
2022-12-20T03:25:18.912Z,70.31
2022-12-20T03:28:21.685Z,70.39
2022-12-20T03:31:24.606Z,70.34
2022-12-20T03:34:27.996Z,70.38
2022-12-20T03:37:30.830Z,70.36
2022-12-20T03:40:33.633Z,70.34
2022-12-20T03:43:36.446Z,70.30
2022-12-20T03:46:39.320Z,70.36
2022-12-20T03:49:42.133Z,70.43
2022-12-20T03:52:44.961Z,70.29
2022-12-20T03:55:47.749Z,70.10
2022-12-20T03:58:50.513Z,70.24
2022-12-20T04:01:53.392Z,69.99
2022-12-20T04:04:56.205Z,69.95
2022-12-20T04:07:58.997Z,69.91
2022-12-20T04:11:17.043Z,69.80
2022-12-20T04:14:19.925Z,69.91
2022-12-20T04:17:22.731Z,69.80
2022-12-20T04:20:25.488Z,69.78
2022-12-20T04:23:28.244Z,69.58
2022-12-20T04:26:31.455Z,69.75
2022-12-20T04:29:34.235Z,69.74
2022-12-20T04:32:37.036Z,69.74
2022-12-20T04:35:39.920Z,69.76
2022-12-20T04:38:42.679Z,69.57
2022-12-20T04:41:45.489Z,69.37
2022-12-20T04:44:48.264Z,69.72
2022-12-20T04:47:51.257Z,69.61
2022-12-20T04:50:55.392Z,69.58
2022-12-20T04:53:58.193Z,69.31
2022-12-20T04:57:01.052Z,69.13
2022-12-20T05:00:05.244Z,69.17
2022-12-20T05:03:08.395Z,69.01
2022-12-20T05:06:12.045Z,69.18
2022-12-20T05:09:14.800Z,69.13
2022-12-20T05:12:17.567Z,68.99
2022-12-20T05:15:20.326Z,68.88
2022-12-20T05:18:23.921Z,68.75
2022-12-20T05:21:44.773Z,68.94
2022-12-20T05:25:06.088Z,68.75
2022-12-20T05:28:08.934Z,68.61
2022-12-20T05:31:11.893Z,68.50
2022-12-20T05:34:14.800Z,68.71
2022-12-20T05:37:17.905Z,68.65
2022-12-20T05:40:20.671Z,68.58
2022-12-20T05:43:23.438Z,68.53
2022-12-20T05:46:26.300Z,68.48
2022-12-20T05:49:29.147Z,68.66
2022-12-20T05:52:32.601Z,68.49
2022-12-20T05:55:35.355Z,68.49
2022-12-20T05:58:38.402Z,68.62
2022-12-20T06:01:41.289Z,68.44
2022-12-20T06:04:44.231Z,68.36
2022-12-20T06:07:47.008Z,68.50
2022-12-20T06:10:50.787Z,68.42
2022-12-20T06:13:53.627Z,68.25
2022-12-20T06:16:56.429Z,68.25
2022-12-20T06:19:59.244Z,68.23
2022-12-20T06:23:02.321Z,68.37
2022-12-20T06:26:08.620Z,68.27
2022-12-20T06:29:13.561Z,68.39
2022-12-20T06:32:16.321Z,68.23
2022-12-20T06:35:19.079Z,68.15
2022-12-20T06:38:21.891Z,68.12
2022-12-20T06:41:24.655Z,68.00
2022-12-20T06:44:27.403Z,68.00
2022-12-20T06:47:30.457Z,68.06
2022-12-20T06:50:33.331Z,68.20
2022-12-20T06:53:36.079Z,68.09
2022-12-20T06:56:41.575Z,68.04
2022-12-20T06:59:44.685Z,68.10
2022-12-20T07:02:47.595Z,68.02
2022-12-20T07:05:53.439Z,67.86
2022-12-20T07:08:56.229Z,68.10
2022-12-20T07:11:59.208Z,68.32
2022-12-20T07:15:01.987Z,68.20
2022-12-20T07:18:06.208Z,68.08
2022-12-20T07:21:09.077Z,67.80
2022-12-20T07:24:11.869Z,68.00
2022-12-20T07:27:14.633Z,68.24
2022-12-20T07:30:19.568Z,68.32
2022-12-20T07:33:22.355Z,68.12
2022-12-20T07:36:25.159Z,68.11
2022-12-20T07:39:28.637Z,68.14
2022-12-20T07:42:36.097Z,68.13
2022-12-20T07:45:42.181Z,68.04
2022-12-20T07:48:45.419Z,68.03
2022-12-20T07:51:52.275Z,68.00
2022-12-20T07:54:59.736Z,67.98
2022-12-20T07:58:06.538Z,67.91
2022-12-20T08:01:12.204Z,68.00
2022-12-20T08:04:20.581Z,68.10
2022-12-20T08:07:24.399Z,68.08
2022-12-20T08:10:28.413Z,67.79
2022-12-20T08:13:32.612Z,67.96
2022-12-20T08:16:35.783Z,67.89
2022-12-20T08:19:38.626Z,67.64
2022-12-20T08:22:41.410Z,67.65
2022-12-20T08:25:44.366Z,67.68
2022-12-20T08:28:47.162Z,67.66
2022-12-20T08:31:50.774Z,67.72
2022-12-20T08:34:54.732Z,67.84
2022-12-20T08:37:57.636Z,67.52
2022-12-20T08:41:04.472Z,67.79
2022-12-20T08:44:07.575Z,67.60
2022-12-20T08:47:10.444Z,67.57
2022-12-20T08:50:13.381Z,67.56
2022-12-20T08:53:16.216Z,67.64
2022-12-20T08:56:19.718Z,67.62
2022-12-20T08:59:22.612Z,67.53
2022-12-20T09:02:25.551Z,67.47
2022-12-20T09:05:28.516Z,67.43
2022-12-20T09:08:31.310Z,67.28
2022-12-20T09:11:34.569Z,67.30
2022-12-20T09:14:38.204Z,67.35
2022-12-20T09:17:41.052Z,67.34
2022-12-20T09:20:44.988Z,67.51
2022-12-20T09:23:50.156Z,67.54
2022-12-20T09:26:53.605Z,67.63
2022-12-20T09:29:57.088Z,67.55
2022-12-20T09:33:08.586Z,67.42
2022-12-20T09:36:16.647Z,67.18
2022-12-20T09:39:20.117Z,66.92
2022-12-20T09:42:26.779Z,67.10
2022-12-20T09:45:30.729Z,66.89
2022-12-20T09:48:37.769Z,66.77
2022-12-20T09:51:58.394Z,66.85
2022-12-20T09:55:13.083Z,66.53
2022-12-20T09:58:41.541Z,66.46
2022-12-20T10:01:47.039Z,66.28
2022-12-20T10:04:51.486Z,66.52
2022-12-20T10:08:03.496Z,66.62
2022-12-20T10:11:16.752Z,66.68
2022-12-20T10:14:37.279Z,66.61
2022-12-20T10:18:05.175Z,66.58
2022-12-20T10:21:16.381Z,66.81
2022-12-20T10:24:25.037Z,66.47
2022-12-20T10:27:28.863Z,66.26
2022-12-20T10:30:34.983Z,66.19
2022-12-20T10:33:38.789Z,66.10
2022-12-20T10:36:42.289Z,66.11
2022-12-20T10:39:49.929Z,66.02
2022-12-20T10:42:53.726Z,66.00
2022-12-20T10:46:00.540Z,65.69
2022-12-20T10:49:23.218Z,65.70
2022-12-20T10:52:28.853Z,65.50
2022-12-20T10:55:37.755Z,65.63
2022-12-20T10:58:41.647Z,65.54
2022-12-20T11:01:47.007Z,65.49
2022-12-20T11:05:00.122Z,65.58
2022-12-20T11:08:35.334Z,65.34
2022-12-20T11:11:39.523Z,65.67
2022-12-20T11:14:44.696Z,65.51
2022-12-20T11:17:51.442Z,65.49
2022-12-20T11:21:03.701Z,65.42
2022-12-20T11:24:14.331Z,65.55
2022-12-20T11:27:29.899Z,65.35
2022-12-20T11:30:43.967Z,65.39
2022-12-20T11:34:00.172Z,65.36
2022-12-20T11:37:23.355Z,65.00
2022-12-20T11:40:32.424Z,64.77
2022-12-20T11:44:24.596Z,64.79
2022-12-20T11:48:01.490Z,64.46
2022-12-20T11:51:15.274Z,64.46
2022-12-20T11:54:26.499Z,64.27
2022-12-20T11:58:01.769Z,64.16
2022-12-20T12:01:08.043Z,63.98
2022-12-20T12:04:18.190Z,64.04
2022-12-20T12:07:25.476Z,63.49
2022-12-20T12:10:34.240Z,63.53
2022-12-20T12:13:40.185Z,63.58
2022-12-20T12:16:49.079Z,63.49
2022-12-20T12:19:57.071Z,63.32
2022-12-20T12:23:05.856Z,63.62
2022-12-20T12:26:15.094Z,63.44
2022-12-20T12:29:19.704Z,63.35
2022-12-20T12:32:30.659Z,63.37
2022-12-20T12:35:54.023Z,63.21
2022-12-20T12:39:27.129Z,63.43
2022-12-20T12:42:47.666Z,63.52
2022-12-20T12:45:55.733Z,63.34
2022-12-20T12:49:05.118Z,63.15
2022-12-20T12:52:28.752Z,63.23
2022-12-20T12:55:42.916Z,63.02
2022-12-20T12:59:13.624Z,62.99
2022-12-20T13:02:52.467Z,62.79
2022-12-20T13:05:56.007Z,62.74
2022-12-20T13:09:20.217Z,62.76
2022-12-20T13:12:58.097Z,62.46
2022-12-20T13:17:09.469Z,62.76
2022-12-20T13:19:56.958Z,62.73
2022-12-20T13:23:17.148Z,62.92
2022-12-20T13:26:50.474Z,62.90
2022-12-20T13:29:58.222Z,63.13
2022-12-20T13:33:22.856Z,63.05
2022-12-20T13:36:37.147Z,62.70
2022-12-20T13:39:40.688Z,62.75
2022-12-20T13:42:44.985Z,62.64
2022-12-20T13:45:50.757Z,62.61
2022-12-20T13:49:02.420Z,62.68
2022-12-20T13:52:16.684Z,62.67
2022-12-20T14:25:27.095Z,63.76
2022-12-20T14:28:35.843Z,63.84
2022-12-20T14:31:43.018Z,63.86
2022-12-20T14:34:47.544Z,63.95
2022-12-20T14:37:56.537Z,64.02
2022-12-20T14:41:00.164Z,64.19
2022-12-20T14:44:14.082Z,64.20
2022-12-20T14:47:22.994Z,64.29
2022-12-20T14:50:30.355Z,64.56
2022-12-20T14:53:36.096Z,64.55
2022-12-20T14:56:46.993Z,64.60
2022-12-20T15:00:01.331Z,64.51
2022-12-20T15:03:17.293Z,64.68
2022-12-20T15:06:37.908Z,65.02
2022-12-20T15:09:42.073Z,65.29
2022-12-20T15:12:46.183Z,65.29
2022-12-20T15:15:49.818Z,65.56
2022-12-20T15:18:55.329Z,65.45
2022-12-20T15:22:00.085Z,65.42
2022-12-20T15:25:05.826Z,65.81
2022-12-20T15:28:17.779Z,65.91
2022-12-20T15:31:30.705Z,65.94
2022-12-20T15:34:38.436Z,66.15
2022-12-20T15:37:41.902Z,66.05
2022-12-20T15:40:46.664Z,66.11
2022-12-20T15:43:52.450Z,66.16
2022-12-20T15:46:56.340Z,66.50
2022-12-20T15:50:00.025Z,66.62
2022-12-20T15:53:03.726Z,66.51
2022-12-20T15:56:16.837Z,66.77
2022-12-20T15:59:57.882Z,66.86
2022-12-20T16:02:45.230Z,66.78
2022-12-20T16:05:50.633Z,66.92
2022-12-20T16:08:54.092Z,67.18
2022-12-20T16:11:57.700Z,67.16
2022-12-20T16:15:01.246Z,67.26
2022-12-20T16:18:05.208Z,67.33
2022-12-20T16:21:15.152Z,67.40
2022-12-20T16:24:20.668Z,67.37
2022-12-20T16:27:24.408Z,67.49
2022-12-20T16:30:28.492Z,67.69
2022-12-20T16:33:32.035Z,67.78
2022-12-20T16:36:35.733Z,67.76
2022-12-20T16:39:39.451Z,67.88
2022-12-20T16:42:43.233Z,68.08
2022-12-20T16:45:46.788Z,68.11
2022-12-20T16:48:50.420Z,68.11
2022-12-20T16:51:53.913Z,68.11
2022-12-20T16:54:57.587Z,68.31
2022-12-20T16:58:01.213Z,68.35
2022-12-20T17:01:04.957Z,68.52
2022-12-20T17:04:14.221Z,68.30
2022-12-20T17:07:17.812Z,68.42
2022-12-20T17:10:21.685Z,68.46
2022-12-20T17:13:25.432Z,68.69
2022-12-20T17:16:29.114Z,69.01
2022-12-20T17:19:32.760Z,69.00
2022-12-20T17:25:58.279Z,69.21
2022-12-20T17:29:02.599Z,69.23
2022-12-20T17:32:18.688Z,69.27
2022-12-20T17:35:25.828Z,69.33
2022-12-20T17:38:29.380Z,69.22
2022-12-20T17:41:33.824Z,69.27
2022-12-20T17:44:37.409Z,69.54
2022-12-20T17:47:40.911Z,69.65
2022-12-20T17:50:44.392Z,69.65
2022-12-20T17:53:50.968Z,69.67
2022-12-20T17:56:55.810Z,69.85
2022-12-20T17:59:59.395Z,70.05
2022-12-20T18:03:03.105Z,69.98
2022-12-20T18:06:09.315Z,70.01
2022-12-20T18:09:15.276Z,70.06
2022-12-20T18:12:18.794Z,70.27
2022-12-20T18:15:22.371Z,70.30
2022-12-20T18:18:25.957Z,70.35
2022-12-20T18:21:29.665Z,70.31
2022-12-20T18:24:33.431Z,70.44
2022-12-20T18:27:42.296Z,70.41
2022-12-20T18:30:45.801Z,70.38
2022-12-20T18:33:55.657Z,70.58
2022-12-20T18:37:01.643Z,70.71
2022-12-20T18:40:08.083Z,70.66
2022-12-20T18:43:11.584Z,70.69
2022-12-20T18:46:16.472Z,70.84
2022-12-20T18:49:20.539Z,70.94
2022-12-20T18:52:24.132Z,70.96
2022-12-20T18:55:27.642Z,70.92
2022-12-20T18:58:31.463Z,71.00
2022-12-20T19:01:36.229Z,70.97
2022-12-20T19:04:39.787Z,71.08
2022-12-20T19:07:43.349Z,71.20
2022-12-20T19:10:47.554Z,71.27
2022-12-20T19:13:51.647Z,71.36
2022-12-20T19:16:55.360Z,71.50
2022-12-20T19:19:58.932Z,71.57
2022-12-20T19:23:02.634Z,71.52
2022-12-20T19:26:08.337Z,71.68
2022-12-20T19:29:11.894Z,71.70
2022-12-20T19:32:15.467Z,71.62
2022-12-20T19:35:53.447Z,71.61
2022-12-20T19:38:44.855Z,71.77
2022-12-20T19:42:14.000Z,71.78
2022-12-20T19:45:12.926Z,71.90
2022-12-20T19:48:16.404Z,72.04
2022-12-20T19:51:21.200Z,72.05
2022-12-20T19:54:24.673Z,72.15
2022-12-20T19:57:28.128Z,72.20
2022-12-20T20:00:31.732Z,72.22
2022-12-20T20:03:36.152Z,72.30
2022-12-20T20:06:39.773Z,72.25
2022-12-20T20:09:43.283Z,72.43
2022-12-20T20:12:46.778Z,72.50
2022-12-20T20:15:54.891Z,72.59
2022-12-20T20:18:58.678Z,72.64
2022-12-20T20:22:02.192Z,72.49
2022-12-20T20:25:07.144Z,72.56
2022-12-20T20:28:10.612Z,72.67
2022-12-20T20:31:15.829Z,72.73
2022-12-20T20:34:19.326Z,72.79
2022-12-20T20:37:22.877Z,72.86
2022-12-20T20:40:26.522Z,72.73
2022-12-20T20:43:31.866Z,72.78
2022-12-20T20:46:35.612Z,72.84
2022-12-20T20:49:39.237Z,72.82
2022-12-20T20:52:43.352Z,72.91
2022-12-20T20:55:47.162Z,72.90
2022-12-20T20:58:51.901Z,72.97
2022-12-20T21:01:55.612Z,72.95
2022-12-20T21:05:52.591Z,73.02
2022-12-20T21:08:22.877Z,73.07
2022-12-20T21:11:27.651Z,73.04
2022-12-20T21:15:12.282Z,73.16
2022-12-20T21:17:54.995Z,73.06
2022-12-20T21:20:58.501Z,73.14
2022-12-20T21:24:02.093Z,73.16
2022-12-20T21:27:05.670Z,73.16
2022-12-20T21:30:11.207Z,73.24
2022-12-20T21:33:14.756Z,73.27
2022-12-20T21:36:19.297Z,73.17
2022-12-20T21:39:23.049Z,73.30
2022-12-20T21:42:26.630Z,73.43
2022-12-20T21:45:30.228Z,73.41
2022-12-20T21:48:33.795Z,73.23
2022-12-20T21:51:37.341Z,73.30
2022-12-20T21:54:42.352Z,73.40
2022-12-20T21:57:47.568Z,73.44
2022-12-20T22:00:54.838Z,73.51
2022-12-20T22:04:00.850Z,73.50
2022-12-20T22:07:04.422Z,73.55
2022-12-20T22:10:10.156Z,73.74
2022-12-20T22:13:14.334Z,73.88
2022-12-20T22:16:20.306Z,73.93
2022-12-20T22:19:23.889Z,74.05
2022-12-20T22:22:27.462Z,73.73
2022-12-20T22:25:31.180Z,73.76
2022-12-20T22:28:34.656Z,73.91
2022-12-20T22:31:38.323Z,74.03
2022-12-20T22:34:41.962Z,74.25
2022-12-20T22:37:45.594Z,74.04
2022-12-20T22:40:49.121Z,73.98
2022-12-20T22:43:53.213Z,74.02
2022-12-20T22:47:06.319Z,74.13
2022-12-20T22:50:11.884Z,74.19
2022-12-20T22:53:15.379Z,74.16
2022-12-20T22:56:20.514Z,74.05
2022-12-20T22:59:24.218Z,74.04
2022-12-20T23:02:28.246Z,74.10
2022-12-20T23:05:31.873Z,74.17
2022-12-20T23:08:36.737Z,74.24
2022-12-20T23:11:58.810Z,74.26
2022-12-20T23:15:20.747Z,74.23
2022-12-20T23:18:24.299Z,74.46
2022-12-20T23:21:46.394Z,74.45
2022-12-20T23:24:49.835Z,74.48
2022-12-20T23:27:53.778Z,74.68
2022-12-20T23:30:57.398Z,74.48
2022-12-20T23:34:01.413Z,74.38
2022-12-20T23:37:05.063Z,74.39
2022-12-20T23:40:11.409Z,74.49
2022-12-20T23:43:13.863Z,74.56
2022-12-20T23:46:19.269Z,74.47
2022-12-20T23:49:22.920Z,74.42
2022-12-20T23:52:26.562Z,74.57
2022-12-20T23:55:30.070Z,74.84
2022-12-20T23:58:33.846Z,74.88
